Time;durP1;ratioP1;P1;durP2;ratioP2;P2;SDS_P1;SDS_P2;PMS_P1;PMS_P2;Temp;Humidity;BMP_temperature;BMP_pressure;BME280_temperature;BME280_humidity;BME280_pressure;Samples;Min_cycle;Max_cycle;Signal;HPM_P1;HPM_P2
2023/03/09 00:00:43;;;;;;;13.00;7.53;;;;;;;;;;4977063;28;20433;-76
2023/03/09 00:03:15;;;;;;;13.50;7.78;;;;;;;;;;4977164;28;20043;-76
2023/03/09 00:05:42;;;;;;;13.18;7.93;;;;;;;;;;4976972;28;20050;-76
2023/03/09 00:08:08;;;;;;;14.70;8.30;;;;;;;;;;4976877;28;20050;-76
2023/03/09 00:10:34;;;;;;;16.15;8.75;;;;;;;;;;4974779;28;20039;-76
2023/03/09 00:13:00;;;;;;;16.38;8.27;;;;;;;;;;4971978;28;20047;-76
2023/03/09 00:15:26;;;;;;;12.88;7.57;;;;;;;;;;4976872;28;20078;-76
2023/03/09 00:17:52;;;;;;;15.98;8.38;;;;;;;;;;4975387;28;20050;-76
2023/03/09 00:20:18;;;;;;;14.43;8.00;;;;;;;;;;4975923;28;20050;-76
2023/03/09 00:22:55;;;;;;;13.90;8.07;;;;;;;;;;4976969;28;20057;-76
2023/03/09 00:25:22;;;;;;;12.73;8.32;;;;;;;;;;4977010;28;20121;-77
2023/03/09 00:27:48;;;;;;;15.95;8.27;;;;;;;;;;4976843;28;20047;-76
2023/03/09 00:30:15;;;;;;;14.48;7.70;;;;;;;;;;4975985;28;20066;-76
2023/03/09 00:32:41;;;;;;;13.07;7.85;;;;;;;;;;4976483;28;20401;-76
2023/03/09 00:35:08;;;;;;;16.13;8.35;;;;;;;;;;4975795;28;20516;-76
2023/03/09 00:37:34;;;;;;;13.07;8.68;;;;;;;;;;4975750;28;20537;-76
2023/03/09 00:40:00;;;;;;;16.13;9.07;;;;;;;;;;4966477;28;20047;-76
2023/03/09 00:42:26;;;;;;;13.65;8.05;;;;;;;;;;4975481;28;20047;-77
2023/03/09 00:44:52;;;;;;;15.50;8.75;;;;;;;;;;4975077;28;20081;-76
2023/03/09 00:47:19;;;;;;;15.88;8.63;;;;;;;;;;4976445;28;20134;-76
2023/03/09 00:49:45;;;;;;;12.43;7.90;;;;;;;;;;4975977;28;20489;-76
2023/03/09 00:52:11;;;;;;;14.73;8.98;;;;;;;;;;4979575;28;20086;-76
2023/03/09 00:54:37;;;;;;;16.88;8.43;;;;;;;;;;4981047;28;20057;-77
2023/03/09 00:57:03;;;;;;;13.15;7.82;;;;;;;;;;4977328;28;20046;-76
2023/03/09 00:59:29;;;;;;;14.65;7.90;;;;;;;;;;4977566;28;20070;-77
2023/03/09 01:01:55;;;;;;;13.38;7.93;;;;;;;;;;4975611;28;20118;-77
2023/03/09 01:04:21;;;;;;;16.13;8.35;;;;;;;;;;4976026;28;20042;-76
2023/03/09 01:06:48;;;;;;;12.98;7.47;;;;;;;;;;4976067;28;20038;-76
2023/03/09 01:09:14;;;;;;;13.40;8.10;;;;;;;;;;4976069;28;20043;-76
2023/03/09 01:11:40;;;;;;;12.55;8.15;;;;;;;;;;4974079;28;20046;-76
2023/03/09 01:14:06;;;;;;;12.40;7.95;;;;;;;;;;4972342;28;20051;-76
2023/03/09 01:16:32;;;;;;;16.85;8.50;;;;;;;;;;4964337;28;20118;-76
2023/03/09 01:18:58;;;;;;;14.07;8.23;;;;;;;;;;4975533;28;20059;-76
2023/03/09 01:21:24;;;;;;;13.57;7.63;;;;;;;;;;4964016;28;20051;-76
2023/03/09 01:23:50;;;;;;;14.23;7.80;;;;;;;;;;4975750;28;20054;-76
2023/03/09 01:26:16;;;;;;;12.63;8.10;;;;;;;;;;4975026;28;20035;-76
2023/03/09 01:28:42;;;;;;;12.65;7.25;;;;;;;;;;4975257;28;20051;-76
2023/03/09 01:31:10;;;;;;;14.05;8.68;;;;;;;;;;4974131;28;20125;-76
2023/03/09 01:33:36;;;;;;;16.65;8.80;;;;;;;;;;4975713;28;20050;-76
2023/03/09 01:36:11;;;;;;;15.68;8.38;;;;;;;;;;4975717;28;20043;-76
2023/03/09 01:38:37;;;;;;;16.63;9.30;;;;;;;;;;4976006;28;20038;-76
2023/03/09 01:41:04;;;;;;;15.27;8.60;;;;;;;;;;4968984;28;20047;-76
2023/03/09 01:43:34;;;;;;;15.80;8.68;;;;;;;;;;4975448;28;20089;-76
2023/03/09 01:46:19;;;;;;;15.32;8.45;;;;;;;;;;4975963;28;20062;-76
2023/03/09 01:48:45;;;;;;;15.65;8.60;;;;;;;;;;4975242;28;20038;-76
2023/03/09 01:51:11;;;;;;;14.52;8.48;;;;;;;;;;4973593;28;20043;-76
2023/03/09 01:53:37;;;;;;;13.50;8.48;;;;;;;;;;4973994;28;20055;-76
2023/03/09 01:56:03;;;;;;;14.68;8.20;;;;;;;;;;4975604;28;20050;-76
2023/03/09 01:58:31;;;;;;;15.13;8.60;;;;;;;;;;4974610;28;20050;-76
2023/03/09 02:00:57;;;;;;;16.35;9.15;;;;;;;;;;4974922;28;20517;-76
2023/03/09 02:03:32;;;;;;;18.27;9.20;;;;;;;;;;4973877;28;20138;-76
2023/03/09 02:06:01;;;;;;;16.20;9.43;;;;;;;;;;4975220;28;20097;-76
2023/03/09 02:08:28;;;;;;;17.50;9.68;;;;;;;;;;4959321;28;20042;-76
2023/03/09 02:10:58;;;;;;;15.98;8.95;;;;;;;;;;4974403;28;20096;-76
2023/03/09 02:13:30;;;;;;;18.00;9.90;;;;;;;;;;4973854;28;20042;-76
2023/03/09 02:15:56;;;;;;;17.48;9.55;;;;;;;;;;4957629;28;20047;-76
2023/03/09 02:18:24;;;;;;;17.20;9.93;;;;;;;;;;4972919;28;20085;-76
2023/03/09 02:20:53;;;;;;;15.65;8.68;;;;;;;;;;4974433;28;20066;-76
2023/03/09 02:23:33;;;;;;;17.30;9.25;;;;;;;;;;4974617;28;20061;-76
2023/03/09 02:26:08;;;;;;;16.00;8.98;;;;;;;;;;4975029;28;20470;-76
2023/03/09 02:28:34;;;;;;;18.73;9.48;;;;;;;;;;4974209;28;20074;-76
2023/03/09 02:31:01;;;;;;;15.23;8.82;;;;;;;;;;4974056;28;20138;-76
2023/03/09 02:33:28;;;;;;;15.68;9.40;;;;;;;;;;4960952;28;20047;-76
2023/03/09 02:35:55;;;;;;;17.60;9.88;;;;;;;;;;4973690;28;20053;-76
2023/03/09 02:38:21;;;;;;;21.48;9.88;;;;;;;;;;4974843;28;20043;-76
2023/03/09 02:40:48;;;;;;;20.48;9.85;;;;;;;;;;4974564;28;20047;-76
2023/03/09 02:43:15;;;;;;;18.17;9.88;;;;;;;;;;4974199;28;20053;-76
2023/03/09 02:45:41;;;;;;;18.38;9.98;;;;;;;;;;4973847;28;20051;-76
2023/03/09 02:48:08;;;;;;;20.15;10.43;;;;;;;;;;4974337;28;20417;-76
2023/03/09 02:50:34;;;;;;;16.38;9.48;;;;;;;;;;4972395;28;20061;-76
2023/03/09 02:53:00;;;;;;;17.73;10.05;;;;;;;;;;4974825;28;20039;-76
2023/03/09 02:55:26;;;;;;;19.80;10.77;;;;;;;;;;4974492;28;20049;-76
2023/03/09 02:57:52;;;;;;;19.58;10.40;;;;;;;;;;4974415;28;20501;-76
2023/03/09 03:00:22;;;;;;;22.75;11.93;;;;;;;;;;4973808;28;20077;-76
2023/03/09 03:02:49;;;;;;;18.70;10.00;;;;;;;;;;4973284;28;20057;-76
2023/03/09 03:05:15;;;;;;;19.92;10.38;;;;;;;;;;4974015;28;20129;-76
2023/03/09 03:07:41;;;;;;;24.23;11.35;;;;;;;;;;4974930;28;20046;-76
2023/03/09 03:10:07;;;;;;;19.63;10.48;;;;;;;;;;4974303;28;20055;-76
2023/03/09 03:12:33;;;;;;;18.20;9.43;;;;;;;;;;4974589;28;20093;-76
2023/03/09 03:14:59;;;;;;;19.55;10.45;;;;;;;;;;4974324;28;20502;-76
2023/03/09 03:17:25;;;;;;;21.40;11.18;;;;;;;;;;4973032;28;20074;-76
2023/03/09 03:19:52;;;;;;;18.80;10.88;;;;;;;;;;4974075;28;20121;-76
2023/03/09 03:22:18;;;;;;;21.02;11.02;;;;;;;;;;4958410;28;20063;-76
2023/03/09 03:24:44;;;;;;;18.30;9.65;;;;;;;;;;4966719;28;20043;-76
2023/03/09 03:27:10;;;;;;;19.70;10.43;;;;;;;;;;4972744;28;20094;-76
2023/03/09 03:29:37;;;;;;;21.45;10.45;;;;;;;;;;4975299;28;20074;-76
2023/03/09 03:32:03;;;;;;;23.38;11.55;;;;;;;;;;4977631;28;20516;-76
2023/03/09 03:34:29;;;;;;;23.67;10.93;;;;;;;;;;4976563;28;20052;-76
2023/03/09 03:36:55;;;;;;;20.25;10.93;;;;;;;;;;4977256;28;20490;-76
2023/03/09 03:39:21;;;;;;;20.45;10.40;;;;;;;;;;4977714;28;20039;-76
2023/03/09 03:41:47;;;;;;;21.08;11.07;;;;;;;;;;4976986;28;20054;-76
2023/03/09 03:44:14;;;;;;;19.40;10.93;;;;;;;;;;4976866;28;20043;-76
2023/03/09 03:46:40;;;;;;;24.00;11.75;;;;;;;;;;4977854;28;20054;-76
2023/03/09 03:49:06;;;;;;;24.50;12.10;;;;;;;;;;4976459;28;20066;-76
2023/03/09 03:51:32;;;;;;;22.42;11.18;;;;;;;;;;4979768;28;20472;-76
2023/03/09 03:53:58;;;;;;;22.40;11.15;;;;;;;;;;4974844;28;20675;-76
2023/03/09 03:56:24;;;;;;;22.95;12.15;;;;;;;;;;4978148;28;20043;-76
2023/03/09 03:58:50;;;;;;;23.20;12.45;;;;;;;;;;4976561;28;20054;-76
2023/03/09 04:01:16;;;;;;;23.83;11.60;;;;;;;;;;4975708;28;20045;-76
2023/03/09 04:03:42;;;;;;;23.20;12.13;;;;;;;;;;4976625;28;20069;-76
2023/03/09 04:06:08;;;;;;;19.40;10.80;;;;;;;;;;4977280;28;20070;-76
2023/03/09 04:08:34;;;;;;;21.90;12.07;;;;;;;;;;4959161;28;20078;-76
2023/03/09 04:11:05;;;;;;;22.60;11.93;;;;;;;;;;4969013;28;20050;-76
2023/03/09 04:13:31;;;;;;;24.80;12.27;;;;;;;;;;4972798;28;20046;-76
2023/03/09 04:15:57;;;;;;;23.08;11.73;;;;;;;;;;4975599;28;20055;-76
2023/03/09 04:18:23;;;;;;;24.83;12.82;;;;;;;;;;4974548;28;20600;-76
2023/03/09 04:20:49;;;;;;;25.35;12.75;;;;;;;;;;4970127;28;20046;-76
2023/03/09 04:23:15;;;;;;;25.80;12.93;;;;;;;;;;4975444;28;20073;-76
2023/03/09 04:25:41;;;;;;;28.60;13.18;;;;;;;;;;4976855;28;20049;-76
2023/03/09 04:28:07;;;;;;;28.70;12.70;;;;;;;;;;4976472;28;20049;-76
2023/03/09 04:30:33;;;;;;;25.42;13.55;;;;;;;;;;4959461;28;20121;-77
2023/03/09 04:32:59;;;;;;;30.30;13.65;;;;;;;;;;4976488;28;20043;-76
2023/03/09 04:35:25;;;;;;;29.42;14.48;;;;;;;;;;4975858;28;20088;-76
2023/03/09 04:37:51;;;;;;;27.55;13.45;;;;;;;;;;4976253;28;20096;-76
2023/03/09 04:40:18;;;;;;;32.05;14.95;;;;;;;;;;4974252;28;21010;-76
2023/03/09 04:42:44;;;;;;;32.42;14.27;;;;;;;;;;4974537;28;20559;-76
2023/03/09 04:45:13;;;;;;;30.05;15.10;;;;;;;;;;4983141;28;20047;-76
2023/03/09 04:47:39;;;;;;;29.30;15.77;;;;;;;;;;4976032;28;20375;-76
2023/03/09 04:50:05;;;;;;;31.48;14.45;;;;;;;;;;4975446;28;20051;-76
2023/03/09 04:52:31;;;;;;;29.83;14.40;;;;;;;;;;4974328;28;20039;-76
2023/03/09 04:54:57;;;;;;;30.17;13.98;;;;;;;;;;4975994;28;20057;-76
2023/03/09 04:57:23;;;;;;;30.50;14.57;;;;;;;;;;4974860;28;20047;-76
2023/03/09 04:59:49;;;;;;;33.17;15.45;;;;;;;;;;4976075;28;20051;-76
2023/03/09 05:02:15;;;;;;;31.83;15.85;;;;;;;;;;4976559;28;20046;-76
2023/03/09 05:04:41;;;;;;;33.50;14.57;;;;;;;;;;4974743;28;20050;-76
2023/03/09 05:07:07;;;;;;;32.78;15.50;;;;;;;;;;4972882;28;20058;-76
2023/03/09 05:09:33;;;;;;;30.33;15.23;;;;;;;;;;4974783;28;20037;-76
2023/03/09 05:11:59;;;;;;;33.78;15.70;;;;;;;;;;4975270;28;20449;-76
2023/03/09 05:14:25;;;;;;;32.90;14.27;;;;;;;;;;4975575;28;20042;-76
2023/03/09 05:16:52;;;;;;;31.23;14.52;;;;;;;;;;4975664;28;20054;-76
2023/03/09 05:19:19;;;;;;;32.08;15.38;;;;;;;;;;4975147;28;20525;-76
2023/03/09 05:21:45;;;;;;;30.98;14.90;;;;;;;;;;4976060;28;20050;-76
2023/03/09 05:24:11;;;;;;;28.60;14.00;;;;;;;;;;4974877;28;20097;-76
2023/03/09 05:26:37;;;;;;;31.35;13.95;;;;;;;;;;4975586;28;20061;-76
2023/03/09 05:29:03;;;;;;;30.23;15.02;;;;;;;;;;4975223;28;20047;-76
2023/03/09 05:31:29;;;;;;;29.33;14.63;;;;;;;;;;4976092;28;20093;-76
2023/03/09 05:33:55;;;;;;;27.60;13.85;;;;;;;;;;4966347;28;20529;-76
2023/03/09 05:36:23;;;;;;;27.38;13.13;;;;;;;;;;4975979;28;20125;-76
2023/03/09 05:38:49;;;;;;;30.95;14.95;;;;;;;;;;4975192;28;20039;-76
2023/03/09 05:41:16;;;;;;;31.25;14.45;;;;;;;;;;4975535;28;20047;-76
2023/03/09 05:43:42;;;;;;;25.63;14.32;;;;;;;;;;4974797;28;20046;-76
2023/03/09 05:46:12;;;;;;;24.95;13.27;;;;;;;;;;4975455;28;20069;-76
2023/03/09 05:48:39;;;;;;;24.25;12.50;;;;;;;;;;4975047;28;20042;-76
2023/03/09 05:51:05;;;;;;;28.20;14.32;;;;;;;;;;4957903;28;20409;-76
2023/03/09 05:53:32;;;;;;;29.48;13.85;;;;;;;;;;4974013;28;20053;-76
2023/03/09 05:55:58;;;;;;;25.40;12.73;;;;;;;;;;4974833;28;20047;-76
2023/03/09 05:58:24;;;;;;;26.25;12.43;;;;;;;;;;4975048;28;20122;-76
2023/03/09 06:00:52;;;;;;;26.23;12.43;;;;;;;;;;4975250;28;20050;-75
2023/03/09 06:03:18;;;;;;;26.48;13.15;;;;;;;;;;4964848;28;20131;-76
2023/03/09 06:05:44;;;;;;;26.38;12.82;;;;;;;;;;4969534;28;20066;-76
2023/03/09 06:08:11;;;;;;;26.15;13.48;;;;;;;;;;4974748;28;20563;-76
2023/03/09 06:10:37;;;;;;;25.73;13.68;;;;;;;;;;4974575;28;20043;-76
2023/03/09 06:13:03;;;;;;;25.33;12.63;;;;;;;;;;4972280;28;20051;-76
2023/03/09 06:15:29;;;;;;;25.90;13.15;;;;;;;;;;4973108;28;20039;-76
2023/03/09 06:17:55;;;;;;;26.05;13.02;;;;;;;;;;4974811;28;20101;-76
2023/03/09 06:20:22;;;;;;;24.15;12.40;;;;;;;;;;4974962;28;20130;-76
2023/03/09 06:22:48;;;;;;;24.00;12.38;;;;;;;;;;4974449;28;20058;-76
2023/03/09 06:25:14;;;;;;;27.90;13.25;;;;;;;;;;4957623;28;20043;-76
2023/03/09 06:27:41;;;;;;;26.70;12.48;;;;;;;;;;4973646;28;20125;-76
2023/03/09 06:30:07;;;;;;;22.23;12.38;;;;;;;;;;4973974;28;20120;-76
2023/03/09 06:32:34;;;;;;;23.38;12.50;;;;;;;;;;4967459;28;20091;-76
2023/03/09 06:35:00;;;;;;;26.83;13.32;;;;;;;;;;4956730;29;20047;-75
2023/03/09 06:37:26;;;;;;;23.63;12.02;;;;;;;;;;4962663;28;20078;-75
2023/03/09 06:39:52;;;;;;;25.55;12.82;;;;;;;;;;4974849;28;20054;-75
2023/03/09 06:42:19;;;;;;;22.30;11.75;;;;;;;;;;4969433;28;20046;-76
2023/03/09 06:44:45;;;;;;;23.70;12.02;;;;;;;;;;4965834;28;20082;-76
2023/03/09 06:47:12;;;;;;;19.58;10.80;;;;;;;;;;4974286;28;20494;-75
2023/03/09 06:49:38;;;;;;;19.92;10.73;;;;;;;;;;4976903;28;20055;-75
2023/03/09 06:52:05;;;;;;;20.25;10.70;;;;;;;;;;4980273;28;20050;-75
2023/03/09 06:54:31;;;;;;;23.48;12.07;;;;;;;;;;4978984;28;20083;-77
2023/03/09 06:56:57;;;;;;;22.08;11.75;;;;;;;;;;4978558;28;20050;-76
2023/03/09 06:59:23;;;;;;;23.52;12.00;;;;;;;;;;4961202;28;20051;-75
2023/03/09 07:01:49;;;;;;;23.27;11.85;;;;;;;;;;4957177;28;20042;-76
2023/03/09 07:04:17;;;;;;;21.73;12.05;;;;;;;;;;4975676;28;20047;-75
2023/03/09 07:06:43;;;;;;;22.52;12.32;;;;;;;;;;4977992;28;20054;-75
2023/03/09 07:09:09;;;;;;;24.60;12.02;;;;;;;;;;4970532;28;20050;-76
2023/03/09 07:11:35;;;;;;;23.73;11.82;;;;;;;;;;4963301;28;20051;-76
2023/03/09 07:14:01;;;;;;;23.55;12.18;;;;;;;;;;4978052;28;20050;-76
2023/03/09 07:16:27;;;;;;;22.05;11.95;;;;;;;;;;4990208;28;20039;-76
2023/03/09 07:18:55;;;;;;;23.00;12.32;;;;;;;;;;4977715;28;20070;-76
2023/03/09 07:21:21;;;;;;;22.02;11.77;;;;;;;;;;4977516;28;20034;-76
2023/03/09 07:23:47;;;;;;;21.55;11.93;;;;;;;;;;4978358;28;20053;-75
2023/03/09 07:26:13;;;;;;;20.98;11.75;;;;;;;;;;4977778;28;20047;-75
2023/03/09 07:28:39;;;;;;;22.00;11.40;;;;;;;;;;4978031;28;20094;-76
2023/03/09 07:31:09;;;;;;;24.20;13.05;;;;;;;;;;4973942;28;20047;-76
2023/03/09 07:33:35;;;;;;;20.80;11.32;;;;;;;;;;4957586;29;20102;-76
2023/03/09 07:36:07;;;;;;;19.60;11.25;;;;;;;;;;4958613;28;20055;-76
2023/03/09 07:38:34;;;;;;;21.08;11.75;;;;;;;;;;4958492;29;20047;-75
2023/03/09 07:41:00;;;;;;;19.73;10.75;;;;;;;;;;4960075;28;20118;-76
2023/03/09 07:43:27;;;;;;;19.58;11.35;;;;;;;;;;4977610;28;20541;-76
2023/03/09 07:45:53;;;;;;;18.98;10.90;;;;;;;;;;4977244;28;20474;-74
2023/03/09 07:48:19;;;;;;;20.23;10.70;;;;;;;;;;4977564;28;20058;-75
2023/03/09 07:50:45;;;;;;;19.45;10.43;;;;;;;;;;4977277;28;20074;-76
2023/03/09 07:53:11;;;;;;;19.30;10.50;;;;;;;;;;4975928;28;20035;-75
2023/03/09 07:55:38;;;;;;;17.73;11.23;;;;;;;;;;4977385;28;20533;-75
2023/03/09 07:58:04;;;;;;;16.25;10.18;;;;;;;;;;4977388;28;20401;-75
2023/03/09 08:00:32;;;;;;;22.42;10.77;;;;;;;;;;4977545;28;20042;-75
2023/03/09 08:02:58;;;;;;;19.75;10.45;;;;;;;;;;4977229;28;20062;-76
2023/03/09 08:05:24;;;;;;;20.35;10.75;;;;;;;;;;4977803;28;20143;-75
2023/03/09 08:07:51;;;;;;;19.90;10.88;;;;;;;;;;4977285;28;20098;-76
2023/03/09 08:10:18;;;;;;;19.05;10.45;;;;;;;;;;4976722;28;20043;-75
2023/03/09 08:12:47;;;;;;;19.05;10.25;;;;;;;;;;4975986;28;20054;-75
2023/03/09 08:15:13;;;;;;;19.13;10.57;;;;;;;;;;4975038;28;20059;-75
2023/03/09 08:17:39;;;;;;;20.45;11.38;;;;;;;;;;4976122;28;20493;-78
2023/03/09 08:20:09;;;;;;;20.08;10.63;;;;;;;;;;4976482;28;20055;-77
2023/03/09 08:22:36;;;;;;;17.90;10.32;;;;;;;;;;4976045;28;20696;-77
2023/03/09 08:25:03;;;;;;;21.27;11.38;;;;;;;;;;4975563;28;20057;-78
2023/03/09 08:27:29;;;;;;;18.77;10.95;;;;;;;;;;4978619;28;20126;-78
2023/03/09 08:29:55;;;;;;;20.38;11.13;;;;;;;;;;4978141;28;20043;-76
2023/03/09 08:32:23;;;;;;;18.55;10.50;;;;;;;;;;4977824;28;20034;-78
2023/03/09 08:34:50;;;;;;;18.98;10.82;;;;;;;;;;4973468;28;20097;-77
2023/03/09 08:37:16;;;;;;;17.45;10.50;;;;;;;;;;4978056;28;20042;-77
2023/03/09 08:39:42;;;;;;;18.58;11.07;;;;;;;;;;4976978;28;20078;-77
2023/03/09 08:42:08;;;;;;;16.40;10.52;;;;;;;;;;4977249;28;20055;-78
2023/03/09 08:44:34;;;;;;;15.77;10.02;;;;;;;;;;4977139;28;20050;-77
2023/03/09 08:47:00;;;;;;;17.10;9.23;;;;;;;;;;4959870;28;20051;-77
2023/03/09 08:49:26;;;;;;;15.07;9.60;;;;;;;;;;4975981;28;20086;-77
2023/03/09 08:51:52;;;;;;;15.57;9.43;;;;;;;;;;4975777;28;20043;-77
2023/03/09 08:54:18;;;;;;;18.02;10.57;;;;;;;;;;4972394;28;20066;-76
2023/03/09 08:56:44;;;;;;;14.70;9.25;;;;;;;;;;4957673;28;20051;-76
2023/03/09 08:59:10;;;;;;;16.05;9.43;;;;;;;;;;4974784;28;20039;-77
2023/03/09 09:01:36;;;;;;;15.38;9.63;;;;;;;;;;4969560;28;20069;-76
2023/03/09 09:04:03;;;;;;;15.30;8.73;;;;;;;;;;4975478;28;20101;-77
2023/03/09 09:06:29;;;;;;;15.00;9.40;;;;;;;;;;4976327;28;20049;-76
2023/03/09 09:08:55;;;;;;;15.20;9.63;;;;;;;;;;4975678;28;20564;-76
2023/03/09 09:11:21;;;;;;;13.88;8.13;;;;;;;;;;4975774;28;20528;-76
2023/03/09 09:13:47;;;;;;;12.45;8.07;;;;;;;;;;4975750;28;20046;-76
2023/03/09 09:16:13;;;;;;;14.27;9.35;;;;;;;;;;4967177;28;20043;-76
2023/03/09 09:18:40;;;;;;;14.18;8.85;;;;;;;;;;4980327;28;20050;-80
2023/03/09 09:21:07;;;;;;;13.50;8.60;;;;;;;;;;4977935;28;20046;-77
2023/03/09 09:23:37;;;;;;;13.50;8.30;;;;;;;;;;4975685;28;20097;-77
2023/03/09 09:26:04;;;;;;;14.20;8.18;;;;;;;;;;4977213;28;20039;-81
2023/03/09 09:28:30;;;;;;;13.85;8.82;;;;;;;;;;4975444;28;20050;-77
2023/03/09 09:30:58;;;;;;;13.02;8.68;;;;;;;;;;4977717;28;20047;-80
2023/03/09 09:33:25;;;;;;;10.80;7.78;;;;;;;;;;4981573;28;20047;-77
2023/03/09 09:35:58;;;;;;;11.38;7.63;;;;;;;;;;4956499;28;20050;-77
2023/03/09 09:38:25;;;;;;;13.32;8.52;;;;;;;;;;4972046;28;20126;-76
2023/03/09 09:40:51;;;;;;;12.05;8.13;;;;;;;;;;4975084;28;20101;-77
2023/03/09 09:43:18;;;;;;;11.82;7.97;;;;;;;;;;4975869;28;20043;-79
2023/03/09 09:45:45;;;;;;;11.23;7.95;;;;;;;;;;4975864;28;20046;-77
2023/03/09 09:48:18;;;;;;;12.38;7.43;;;;;;;;;;4975577;28;20501;-77
2023/03/09 09:50:47;;;;;;;11.32;7.57;;;;;;;;;;4975613;28;20051;-76
2023/03/09 09:53:19;;;;;;;12.38;7.90;;;;;;;;;;4979720;28;20062;-77
2023/03/09 09:55:45;;;;;;;14.07;7.40;;;;;;;;;;4981332;28;20059;-77
2023/03/09 09:58:11;;;;;;;12.80;7.88;;;;;;;;;;4977287;28;20120;-77
2023/03/09 10:00:40;;;;;;;11.93;6.95;;;;;;;;;;4976415;28;20442;-78
2023/03/09 10:03:13;;;;;;;11.13;7.68;;;;;;;;;;4975486;28;20046;-77
2023/03/09 10:05:45;;;;;;;10.20;6.97;;;;;;;;;;4975981;28;20046;-78
2023/03/09 10:08:30;;;;;;;10.25;7.03;;;;;;;;;;4974868;28;20050;-77
2023/03/09 10:11:00;;;;;;;10.23;7.32;;;;;;;;;;4974676;28;20046;-77
2023/03/09 10:13:32;;;;;;;10.20;7.13;;;;;;;;;;4966268;28;20506;-77
2023/03/09 10:16:01;;;;;;;9.95;6.85;;;;;;;;;;4968424;28;20055;-77
2023/03/09 10:18:35;;;;;;;11.00;7.50;;;;;;;;;;5006196;28;20055;-77
2023/03/09 10:21:02;;;;;;;10.20;6.60;;;;;;;;;;4982850;28;20406;-77
2023/03/09 10:23:30;;;;;;;9.40;6.70;;;;;;;;;;4975172;28;20055;-77
2023/03/09 10:26:01;;;;;;;8.60;6.32;;;;;;;;;;4974324;28;20046;-77
2023/03/09 10:28:33;;;;;;;9.32;6.53;;;;;;;;;;4969907;28;20047;-77
2023/03/09 10:31:02;;;;;;;10.40;6.30;;;;;;;;;;4974759;28;20077;-77
2023/03/09 10:33:45;;;;;;;9.77;6.97;;;;;;;;;;4962173;28;20490;-78
2023/03/09 10:36:33;;;;;;;9.48;6.70;;;;;;;;;;4967443;28;20081;-77
2023/03/09 10:39:17;;;;;;;8.80;6.40;;;;;;;;;;4974022;28;20121;-77
2023/03/09 10:41:43;;;;;;;9.15;6.72;;;;;;;;;;4967107;28;20047;-77
2023/03/09 10:44:13;;;;;;;10.95;6.65;;;;;;;;;;4975220;28;20047;-77
2023/03/09 10:46:55;;;;;;;11.77;7.15;;;;;;;;;;4975687;28;20078;-78
2023/03/09 10:49:21;;;;;;;9.35;6.88;;;;;;;;;;4973823;28;20043;-77
2023/03/09 10:51:55;;;;;;;9.73;6.55;;;;;;;;;;4973981;28;20047;-78
2023/03/09 10:54:31;;;;;;;11.88;7.43;;;;;;;;;;4979668;28;20104;-79
2023/03/09 10:56:58;;;;;;;10.52;6.90;;;;;;;;;;4974811;28;20130;-79
2023/03/09 10:59:25;;;;;;;9.85;7.10;;;;;;;;;;4978778;28;20043;-78
2023/03/09 11:01:52;;;;;;;9.75;6.75;;;;;;;;;;4983244;28;20039;-78
2023/03/09 11:04:24;;;;;;;10.32;6.47;;;;;;;;;;4983394;28;20061;-80
2023/03/09 11:06:55;;;;;;;9.82;7.18;;;;;;;;;;4982582;28;20070;-79
2023/03/09 11:09:24;;;;;;;9.77;7.25;;;;;;;;;;4978469;28;20094;-79
2023/03/09 11:11:50;;;;;;;9.32;6.97;;;;;;;;;;4978166;28;20050;-78
2023/03/09 11:14:22;;;;;;;10.35;7.05;;;;;;;;;;4974496;28;20049;-78
2023/03/09 11:16:52;;;;;;;9.98;7.30;;;;;;;;;;4979552;28;20039;-78
2023/03/09 11:19:20;;;;;;;10.90;7.30;;;;;;;;;;4974704;28;20070;-77
2023/03/09 11:21:46;;;;;;;11.68;7.53;;;;;;;;;;4981135;28;20086;-78
2023/03/09 11:24:14;;;;;;;9.60;7.22;;;;;;;;;;4975232;28;20046;-78
2023/03/09 11:26:43;;;;;;;10.20;7.43;;;;;;;;;;4976323;28;20138;-79
2023/03/09 11:29:21;;;;;;;9.75;7.40;;;;;;;;;;4977548;28;20042;-78
2023/03/09 11:31:48;;;;;;;10.23;7.32;;;;;;;;;;4978045;28;20135;-78
2023/03/09 11:34:21;;;;;;;9.38;7.07;;;;;;;;;;4978736;28;20050;-78
2023/03/09 11:36:57;;;;;;;11.50;7.57;;;;;;;;;;4969207;28;20152;-79
2023/03/09 11:39:43;;;;;;;10.98;7.10;;;;;;;;;;4981588;28;20171;-78
2023/03/09 11:42:15;;;;;;;11.13;6.80;;;;;;;;;;4957209;28;20552;-78
2023/03/09 11:44:43;;;;;;;10.05;6.93;;;;;;;;;;4957949;28;20058;-79
2023/03/09 11:47:30;;;;;;;10.07;7.25;;;;;;;;;;4976902;28;20051;-79
2023/03/09 11:49:57;;;;;;;9.23;6.82;;;;;;;;;;4976080;28;20061;-78
2023/03/09 11:52:30;;;;;;;8.32;6.35;;;;;;;;;;4981723;28;20050;-78
2023/03/09 11:54:59;;;;;;;9.68;7.18;;;;;;;;;;4984409;28;20056;-79
2023/03/09 11:57:26;;;;;;;11.75;7.15;;;;;;;;;;4984552;28;20049;-78
2023/03/09 11:59:55;;;;;;;9.05;6.53;;;;;;;;;;4982007;28;20134;-79
2023/03/09 12:02:33;;;;;;;9.73;7.15;;;;;;;;;;4984844;28;20071;-79
2023/03/09 12:05:01;;;;;;;10.75;7.28;;;;;;;;;;4973496;28;20066;-79
2023/03/09 12:07:43;;;;;;;8.32;6.28;;;;;;;;;;4979598;28;20046;-78
2023/03/09 12:10:10;;;;;;;8.75;6.60;;;;;;;;;;4979541;28;20057;-78
2023/03/09 12:12:55;;;;;;;8.30;6.25;;;;;;;;;;4982573;28;20057;-78
2023/03/09 12:15:22;;;;;;;8.88;6.55;;;;;;;;;;4983807;28;20057;-81
2023/03/09 12:17:53;;;;;;;9.32;6.28;;;;;;;;;;4983212;28;20051;-78
2023/03/09 12:20:20;;;;;;;9.75;7.03;;;;;;;;;;4988723;28;20070;-80
2023/03/09 12:22:47;;;;;;;9.43;7.22;;;;;;;;;;4981528;28;20050;-79
2023/03/09 12:25:18;;;;;;;8.57;6.85;;;;;;;;;;4969121;28;20130;-79
2023/03/09 12:27:55;;;;;;;8.88;6.65;;;;;;;;;;4982019;28;20062;-79
2023/03/09 12:30:30;;;;;;;9.27;6.45;;;;;;;;;;4978386;28;20038;-79
2023/03/09 12:33:00;;;;;;;12.40;7.57;;;;;;;;;;4986399;28;20062;-79
2023/03/09 12:35:26;;;;;;;9.77;6.68;;;;;;;;;;5001548;28;20453;-79
2023/03/09 12:38:03;;;;;;;9.90;6.97;;;;;;;;;;4987622;28;20042;-79
2023/03/09 12:40:31;;;;;;;9.57;6.82;;;;;;;;;;4991865;28;20057;-79
2023/03/09 12:42:58;;;;;;;11.88;7.43;;;;;;;;;;4986194;28;20043;-79
2023/03/09 12:45:29;;;;;;;9.98;6.97;;;;;;;;;;5000445;28;20398;-79
2023/03/09 12:47:55;;;;;;;9.25;6.57;;;;;;;;;;5000426;28;20074;-79
2023/03/09 12:50:21;;;;;;;9.65;7.18;;;;;;;;;;4983234;28;20059;-79
2023/03/09 12:52:54;;;;;;;8.30;6.28;;;;;;;;;;4984748;28;20050;-79
2023/03/09 12:55:35;;;;;;;8.07;6.03;;;;;;;;;;4985900;28;20042;-79
2023/03/09 12:58:22;;;;;;;8.73;6.22;;;;;;;;;;4989067;28;20054;-79
2023/03/09 13:00:57;;;;;;;7.90;5.80;;;;;;;;;;4984617;28;20043;-79
2023/03/09 13:03:24;;;;;;;9.00;6.80;;;;;;;;;;4974791;28;20039;-79
2023/03/09 13:05:51;;;;;;;8.27;6.10;;;;;;;;;;4979208;28;20493;-79
2023/03/09 13:08:37;;;;;;;8.75;6.07;;;;;;;;;;4984567;28;20105;-79
2023/03/09 13:11:22;;;;;;;7.50;5.47;;;;;;;;;;4973696;28;20085;-78
2023/03/09 13:13:49;;;;;;;8.35;5.97;;;;;;;;;;4985715;28;20050;-79
2023/03/09 13:16:34;;;;;;;7.50;5.78;;;;;;;;;;4977116;28;20596;-78
2023/03/09 13:19:18;;;;;;;8.45;5.53;;;;;;;;;;4957425;28;20514;-79
2023/03/09 13:21:47;;;;;;;8.63;5.85;;;;;;;;;;4972429;28;20050;-78
2023/03/09 13:24:16;;;;;;;6.47;5.50;;;;;;;;;;5010245;28;20074;-80
2023/03/09 13:26:43;;;;;;;9.02;5.22;;;;;;;;;;4960610;28;20046;-78
2023/03/09 13:29:10;;;;;;;8.43;5.45;;;;;;;;;;4958891;28;20051;-78
2023/03/09 13:31:36;;;;;;;8.07;5.50;;;;;;;;;;4956586;28;20051;-78
2023/03/09 13:34:03;;;;;;;9.70;5.10;;;;;;;;;;4957147;28;20039;-77
2023/03/09 13:36:30;;;;;;;7.78;5.82;;;;;;;;;;4959401;28;20055;-78
2023/03/09 13:38:59;;;;;;;8.85;5.82;;;;;;;;;;4962717;28;20043;-77
2023/03/09 13:41:27;;;;;;;7.70;6.07;;;;;;;;;;4987363;28;20046;-78
2023/03/09 13:43:54;;;;;;;8.93;6.00;;;;;;;;;;4980282;28;20050;-78
2023/03/09 13:46:22;;;;;;;8.02;5.70;;;;;;;;;;4976744;28;20505;-77
2023/03/09 13:48:54;;;;;;;8.93;7.07;;;;;;;;;;4975385;28;20047;-77
2023/03/09 13:51:32;;;;;;;7.72;5.55;;;;;;;;;;4978287;28;20490;-77
2023/03/09 13:53:59;;;;;;;6.90;5.50;;;;;;;;;;4988311;28;20050;-77
2023/03/09 13:56:25;;;;;;;6.05;5.13;;;;;;;;;;4977285;28;20479;-78
2023/03/09 13:58:52;;;;;;;7.18;5.22;;;;;;;;;;4966445;28;20070;-78
2023/03/09 14:01:28;;;;;;;6.85;4.80;;;;;;;;;;4968144;28;20062;-77
2023/03/09 14:03:56;;;;;;;6.18;5.10;;;;;;;;;;4974694;28;20086;-77
2023/03/09 14:06:30;;;;;;;6.18;4.75;;;;;;;;;;4973562;28;20497;-78
2023/03/09 14:08:56;;;;;;;6.28;5.30;;;;;;;;;;4965725;28;20441;-77
2023/03/09 14:11:24;;;;;;;6.93;5.03;;;;;;;;;;4967077;28;20046;-77
2023/03/09 14:13:59;;;;;;;6.38;4.95;;;;;;;;;;4964114;28;20056;-77
2023/03/09 14:16:26;;;;;;;7.82;5.20;;;;;;;;;;4955839;28;20348;-78
2023/03/09 14:18:54;;;;;;;8.23;5.47;;;;;;;;;;4974408;28;20047;-80
2023/03/09 14:21:20;;;;;;;7.60;5.50;;;;;;;;;;4972349;28;20042;-80
2023/03/09 14:23:48;;;;;;;8.00;5.25;;;;;;;;;;4974296;28;20490;-77
2023/03/09 14:26:23;;;;;;;6.72;5.20;;;;;;;;;;4973160;28;20043;-77
2023/03/09 14:29:03;;;;;;;6.78;5.10;;;;;;;;;;4974794;28;20053;-77
2023/03/09 14:31:29;;;;;;;7.10;5.55;;;;;;;;;;4973300;28;20051;-77
2023/03/09 14:34:01;;;;;;;6.57;5.63;;;;;;;;;;4969528;28;20537;-77